Time;durP1;ratioP1;P1;durP2;ratioP2;P2;SDS_P1;SDS_P2;PMS_P1;PMS_P2;Temp;Humidity;BMP_temperature;BMP_pressure;BME280_temperature;BME280_humidity;BME280_pressure;Samples;Min_cycle;Max_cycle;Signal;HPM_P1;HPM_P2
2021/10/28 00:14:42;;;;;;;0.93;0.93;;;20.40;50.60;;;24.21;33.96;101760.03;5054695;28;20166;-8
2021/10/28 00:17:13;;;;;;;1.08;0.90;;;20.40;50.60;;;24.18;34.13;101757.53;5054486;28;20521;-8
2021/10/28 00:19:40;;;;;;;1.92;1.50;;;20.40;50.60;;;24.22;33.98;101758.19;5054610;28;20135;-8
2021/10/28 00:22:08;;;;;;;1.30;1.20;;;20.40;50.60;;;24.19;34.20;101747.69;5054597;28;20055;-8
2021/10/28 00:24:34;;;;;;;2.78;1.13;;;20.40;50.70;;;24.22;34.28;101750.19;5036514;28;20175;-8
2021/10/28 00:27:00;;;;;;;1.50;1.40;;;20.40;50.80;;;24.19;34.16;101751.25;5054710;28;20049;-7
2021/10/28 00:29:26;;;;;;;1.25;1.15;;;20.40;50.70;;;24.21;34.06;101765.38;5054545;28;20079;-8
2021/10/28 00:31:57;;;;;;;1.55;1.30;;;20.40;50.70;;;24.20;33.89;101752.94;5036495;28;20047;-7
2021/10/28 00:34:25;;;;;;;3.40;0.90;;;20.40;50.70;;;24.20;34.06;101752.09;5054943;28;20052;-7
2021/10/28 00:36:52;;;;;;;1.33;1.17;;;20.40;50.80;;;24.18;33.86;101760.22;5054371;28;20275;-8
2021/10/28 00:39:18;;;;;;;1.45;1.00;;;20.40;50.70;;;24.19;33.95;101747.69;5054215;28;20052;-8
2021/10/28 00:41:44;;;;;;;1.63;1.10;;;20.40;50.70;;;24.18;34.13;101762.88;5054287;28;20049;-8
2021/10/28 00:44:10;;;;;;;1.30;1.05;;;20.40;50.60;;;24.20;34.17;101766.31;5054288;28;20037;-8
2021/10/28 00:46:39;;;;;;;1.35;1.00;;;20.40;50.70;;;24.20;33.98;101766.31;5054231;28;20048;-8
2021/10/28 00:49:09;;;;;;;1.20;1.10;;;20.40;50.70;;;24.21;34.09;101767.19;5054114;28;20497;-8
2021/10/28 00:51:35;;;;;;;1.35;1.25;;;20.40;50.60;;;24.18;34.10;101751.34;5054093;28;20075;-7
2021/10/28 00:54:04;;;;;;;1.25;1.00;;;20.40;50.70;;;24.19;34.10;101761.94;5054202;28;20053;-8
2021/10/28 00:56:32;;;;;;;1.38;1.20;;;20.40;50.60;;;24.17;34.02;101755.84;5054415;28;20068;-8
2021/10/28 00:59:01;;;;;;;1.08;0.98;;;20.40;50.70;;;24.17;33.94;101760.31;5053876;28;20084;-7
2021/10/28 01:01:27;;;;;;;1.33;1.23;;;20.40;50.70;;;24.18;33.91;101759.34;5054326;28;20535;-8
2021/10/28 01:03:55;;;;;;;1.83;1.30;;;20.30;50.80;;;24.17;34.14;101763.84;5052890;28;20485;-8
2021/10/28 01:06:23;;;;;;;1.83;1.00;;;20.30;50.70;;;24.13;34.06;101754.28;5053899;28;20141;-8
2021/10/28 01:08:51;;;;;;;1.77;1.10;;;20.30;50.70;;;24.16;34.06;101754.09;5053914;28;20076;-7
2021/10/28 01:11:18;;;;;;;1.75;1.33;;;20.40;50.70;;;24.15;34.10;101754.19;5053926;28;20079;-8
2021/10/28 01:13:44;;;;;;;1.10;1.00;;;20.40;50.60;;;24.14;33.97;101761.38;5053792;28;20090;-8
2021/10/28 01:16:10;;;;;;;1.52;1.20;;;20.30;50.60;;;24.16;34.04;101742.56;5053559;28;20056;-8
2021/10/28 01:18:38;;;;;;;1.30;0.95;;;20.30;50.60;;;24.14;34.20;101750.69;5053421;28;20501;-8
2021/10/28 01:21:08;;;;;;;1.20;1.10;;;20.30;50.70;;;24.16;33.91;101746.09;5053191;28;20048;-8
2021/10/28 01:23:36;;;;;;;1.92;1.10;;;20.30;50.70;;;24.16;34.01;101758.59;5053587;28;20044;-8
2021/10/28 01:26:10;;;;;;;1.17;1.08;;;20.30;50.80;;;24.13;34.03;101750.78;5053234;28;20041;-8
2021/10/28 01:28:50;;;;;;;1.00;0.90;;;20.30;50.80;;;24.13;34.02;101756.97;5053605;28;20040;-8
2021/10/28 01:31:21;;;;;;;1.10;0.93;;;20.30;50.70;;;24.14;33.86;101749.78;5052784;28;20556;-8
2021/10/28 01:33:46;;;;;;;1.50;1.23;;;20.30;50.70;;;24.16;33.91;101745.25;5053909;28;20071;-8
2021/10/28 01:36:12;;;;;;;1.05;1.00;;;20.30;50.70;;;24.14;33.90;101753.34;5053157;28;20493;-8
2021/10/28 01:38:41;;;;;;;1.10;1.00;;;20.30;50.60;;;24.14;34.01;101741.78;5053649;28;20060;-8
2021/10/28 01:41:08;;;;;;;0.75;0.73;;;20.30;50.70;;;24.12;33.95;101746.38;5052990;28;20072;-8
2021/10/28 01:43:34;;;;;;;1.17;1.08;;;20.30;50.70;;;24.13;34.12;101748.94;5053285;28;20049;-8
2021/10/28 01:46:00;;;;;;;1.20;0.85;;;20.30;50.60;;;24.15;33.93;101744.34;5053062;28;20077;-8
2021/10/28 01:48:27;;;;;;;2.42;1.42;;;20.30;50.60;;;24.15;33.95;101749.72;5053243;28;20053;-8
2021/10/28 01:50:53;;;;;;;1.38;1.05;;;20.30;50.70;;;24.12;34.22;101739.19;5053483;28;20049;-8
2021/10/28 01:53:19;;;;;;;1.17;1.08;;;20.30;50.70;;;24.14;34.18;101742.66;5053479;28;20390;-8
2021/10/28 01:55:46;;;;;;;1.23;1.13;;;20.30;50.70;;;24.11;34.03;101740.19;5053481;28;20063;-7
2021/10/28 01:58:12;;;;;;;1.25;1.10;;;20.30;50.70;;;24.12;34.17;101733.84;5052952;28;20041;-9
2021/10/28 02:00:41;;;;;;;0.98;0.90;;;20.30;50.70;;;24.13;33.92;101732.06;5053001;28;20049;-8
2021/10/28 02:03:06;;;;;;;1.42;1.25;;;20.30;50.60;;;24.14;33.86;101736.44;5053091;28;20053;-8
2021/10/28 02:05:32;;;;;;;1.13;1.02;;;20.30;50.70;;;24.12;33.86;101730.34;5053283;28;20059;-8
2021/10/28 02:07:58;;;;;;;1.15;0.98;;;20.30;50.60;;;24.11;34.06;101726.81;5053208;28;20137;-8
2021/10/28 02:10:24;;;;;;;1.13;1.02;;;20.30;50.60;;;24.14;33.85;101737.31;5052699;28;20053;-8
2021/10/28 02:12:50;;;;;;;1.25;1.10;;;20.30;50.60;;;24.10;34.00;101722.41;5053024;28;20045;-8
2021/10/28 02:15:19;;;;;;;1.20;1.10;;;20.30;50.70;;;24.14;33.82;101731.97;5034655;28;20472;-8
2021/10/28 02:17:46;;;;;;;1.40;1.00;;;20.30;50.70;;;24.09;34.24;101723.38;5053367;28;20045;-8
2021/10/28 02:20:14;;;;;;;1.75;1.45;;;20.30;50.70;;;24.11;34.04;101728.63;5052621;28;20094;-8
2021/10/28 02:22:41;;;;;;;1.10;1.00;;;20.30;50.70;;;24.13;34.00;101726.72;5053010;28;20505;-8
2021/10/28 02:25:08;;;;;;;1.27;1.15;;;20.30;50.80;;;24.09;33.95;101726.06;5035044;28;20390;-8
2021/10/28 02:27:34;;;;;;;1.52;1.10;;;20.20;50.70;;;24.10;34.02;101719.75;5052735;28;20041;-8
2021/10/28 02:30:01;;;;;;;1.05;0.95;;;20.20;50.70;;;24.08;33.98;101724.31;5052525;28;20072;-8
2021/10/28 02:32:27;;;;;;;1.27;1.10;;;20.20;50.70;;;24.13;34.13;101724.91;5052694;28;20152;-8
2021/10/28 02:34:53;;;;;;;1.40;1.27;;;20.20;50.70;;;24.13;33.90;101732.06;5052725;28;20159;-8
2021/10/28 02:37:19;;;;;;;1.20;1.10;;;20.30;50.80;;;24.11;34.08;101732.16;5052577;28;20497;-8
2021/10/28 02:39:48;;;;;;;1.35;0.93;;;20.30;50.70;;;24.12;33.95;101731.19;5052517;28;20048;-8
2021/10/28 02:42:17;;;;;;;1.30;0.95;;;20.30;50.60;;;24.11;33.94;101723.28;5052460;28;20045;-8
2021/10/28 02:44:48;;;;;;;0.90;0.88;;;20.30;50.60;;;24.12;33.95;101717.81;5052495;28;20040;-8
2021/10/28 02:47:15;;;;;;;1.20;1.10;;;20.30;50.70;;;24.09;34.18;101717.16;5052469;28;20174;-8
2021/10/28 02:49:41;;;;;;;1.17;1.08;;;20.20;50.70;;;24.10;34.17;101717.06;5052429;28;20045;-8
2021/10/28 02:52:07;;;;;;;1.17;1.08;;;20.20;50.60;;;24.10;33.98;101721.56;5053014;28;20088;-8
2021/10/28 02:54:34;;;;;;;2.00;1.23;;;20.20;50.70;;;24.09;34.00;101719.84;5034211;28;20133;-8
2021/10/28 02:57:01;;;;;;;1.10;1.00;;;20.30;50.60;;;24.12;34.14;101725.00;5052606;28;20130;-8
2021/10/28 02:59:27;;;;;;;0.95;0.95;;;20.30;50.60;;;24.11;33.83;101721.47;5052619;28;20041;-7
2021/10/28 03:01:55;;;;;;;0.82;0.82;;;20.30;50.50;;;24.12;34.00;101725.00;5052369;28;20094;-8
2021/10/28 03:04:24;;;;;;;1.48;1.13;;;20.40;50.50;;;24.11;34.20;101720.63;5052202;28;20134;-8
2021/10/28 03:06:51;;;;;;;1.35;1.25;;;20.30;50.60;;;24.10;34.03;101709.06;5052199;28;20517;-8
2021/10/28 03:09:27;;;;;;;1.55;1.33;;;20.20;50.80;;;24.08;34.06;101710.97;5052237;28;20056;-8
2021/10/28 03:11:58;;;;;;;1.17;1.08;;;20.20;50.80;;;24.12;33.98;101715.16;5052520;28;20409;-8
2021/10/28 03:17:13;;;;;;;1.75;1.00;;;20.20;51.00;;;24.13;33.94;101711.53;5052048;28;20052;-8
2021/10/28 03:27:39;;;;;;;1.05;0.93;;;20.30;51.10;;;24.15;34.37;101720.31;5052675;28;20186;-9
2021/10/28 03:30:07;;;;;;;1.42;1.20;;;20.30;51.10;;;24.16;34.41;101715.84;5055274;28;20045;-8
2021/10/28 03:32:34;;;;;;;0.93;0.88;;;20.30;51.20;;;24.16;34.43;101710.50;5055297;28;20382;-8
2021/10/28 03:35:00;;;;;;;1.05;0.95;;;20.30;51.10;;;24.20;34.28;101717.38;5055608;28;20072;-8
2021/10/28 03:37:29;;;;;;;1.10;1.00;;;20.30;51.20;;;24.21;34.32;101716.41;5054029;28;20136;-7
2021/10/28 03:48:19;;;;;;;1.00;0.90;;;20.50;50.80;;;24.31;34.10;101714.03;5054856;28;20500;-8
2021/10/28 03:59:18;;;;;;;1.10;0.90;;;20.70;50.40;;;24.44;34.00;101711.44;5054666;28;20107;-7
2021/10/28 04:04:50;;;;;;;1.58;1.10;;;20.80;50.20;;;24.46;34.15;101702.38;5054874;28;20041;-8
2021/10/28 04:31:40;;;;;;;1.13;1.00;;;21.00;49.80;;;24.63;33.78;101687.09;5037067;28;20060;-8
2021/10/28 04:34:11;;;;;;;1.33;1.10;;;20.90;50.00;;;24.59;33.75;101689.97;5054378;28;20064;-7
2021/10/28 04:36:38;;;;;;;1.42;0.93;;;20.80;50.10;;;24.63;33.82;101690.63;5036609;28;20056;-8
2021/10/28 04:39:08;;;;;;;1.30;1.10;;;20.80;50.20;;;24.65;33.61;101701.22;5053940;28;20037;-8
2021/10/28 04:41:34;;;;;;;0.97;0.90;;;20.70;50.30;;;24.65;33.86;101687.84;5054378;28;20053;-7
2021/10/28 04:44:06;;;;;;;1.10;1.00;;;20.70;50.30;;;24.64;33.89;101697.69;5054297;28;20037;-7
2021/10/28 04:46:32;;;;;;;1.08;0.98;;;20.70;50.40;;;24.59;33.66;101679.28;5054556;28;20045;-7
2021/10/28 04:48:59;;;;;;;1.33;1.00;;;20.60;50.50;;;24.62;33.80;101688.03;5054306;28;20095;-8
2021/10/28 04:51:24;;;;;;;1.10;1.00;;;20.60;50.50;;;24.60;33.70;101693.50;5054081;28;20053;-8
2021/10/28 04:53:52;;;;;;;1.50;1.10;;;20.60;50.60;;;24.62;33.76;101701.41;5054152;28;20048;-8
2021/10/28 04:56:17;;;;;;;1.10;1.05;;;20.60;50.60;;;24.60;33.69;101697.00;5054043;28;20041;-7
2021/10/28 04:58:43;;;;;;;1.00;1.00;;;20.50;50.60;;;24.60;33.78;101697.00;5054014;28;20049;-8
2021/10/28 05:01:09;;;;;;;1.30;1.20;;;20.50;50.60;;;24.60;33.85;101688.13;5054124;28;20060;-9
2021/10/28 05:03:35;;;;;;;1.10;1.00;;;20.50;50.60;;;24.59;33.90;101689.97;5053830;28;20055;-8
2021/10/28 05:06:02;;;;;;;1.00;0.90;;;20.50;50.70;;;24.59;33.69;101687.28;5053518;28;20057;-8
2021/10/28 05:08:28;;;;;;;1.08;0.80;;;20.50;50.60;;;24.59;33.90;101694.44;5054162;28;20060;-7
2021/10/28 05:10:53;;;;;;;1.30;1.20;;;20.50;50.60;;;24.56;33.88;101682.13;5053883;28;20049;-7
2021/10/28 05:13:19;;;;;;;0.82;0.82;;;20.50;50.60;;;24.56;33.67;101679.47;5054063;28;20044;-8
2021/10/28 05:15:48;;;;;;;1.38;1.15;;;20.50;50.60;;;24.54;33.71;101678.69;5053756;28;20110;-8
2021/10/28 05:18:16;;;;;;;1.30;1.08;;;20.50;50.60;;;24.56;33.83;101689.31;5053637;28;20110;-8
2021/10/28 05:20:43;;;;;;;1.85;1.00;;;20.40;50.60;;;24.53;33.89;101686.78;5053669;28;20097;-8
2021/10/28 05:23:10;;;;;;;1.23;1.10;;;20.50;50.70;;;24.54;33.79;101691.16;5053731;28;20049;-9
2021/10/28 05:25:36;;;;;;;1.10;1.00;;;20.40;50.70;;;24.54;33.78;101694.72;5053545;28;20049;-8
2021/10/28 05:28:02;;;;;;;1.25;1.15;;;20.50;50.60;;;24.54;33.76;101688.50;5036005;28;20045;-8
2021/10/28 05:30:28;;;;;;;1.30;0.95;;;20.50;50.60;;;24.55;33.53;101687.59;5053461;28;20128;-8
2021/10/28 05:32:56;;;;;;;0.93;0.90;;;20.50;50.60;;;24.53;33.75;101687.66;5053594;28;20545;-8
2021/10/28 05:35:22;;;;;;;1.75;1.00;;;20.50;50.40;;;24.55;33.76;101692.94;5052180;28;20045;-8
2021/10/28 05:37:48;;;;;;;0.82;0.82;;;20.60;50.40;;;24.55;33.67;101691.09;5053730;28;20488;-7
2021/10/28 05:40:14;;;;;;;1.85;1.10;;;20.60;50.50;;;24.55;33.66;101687.59;5053283;28;20486;-8
2021/10/28 05:42:43;;;;;;;1.45;1.15;;;20.60;50.50;;;24.54;33.65;101683.16;5052179;28;20056;-8
2021/10/28 05:45:10;;;;;;;0.85;0.85;;;20.60;50.50;;;24.52;33.78;101685.91;5053570;28;20374;-8
2021/10/28 05:47:37;;;;;;;2.65;1.25;;;20.60;50.40;;;24.55;33.74;101684.91;5053229;28;20060;-8
2021/10/28 05:50:06;;;;;;;6.70;1.35;;;20.60;50.50;;;24.56;33.73;101691.97;5052816;28;20045;-8
2021/10/28 05:52:32;;;;;;;2.53;1.50;;;20.60;50.60;;;24.56;33.91;101683.97;5053141;28;20136;-8
2021/10/28 05:55:01;;;;;;;3.15;1.45;;;20.70;50.40;;;24.57;33.91;101682.97;5053271;28;20136;-8
2021/10/28 05:57:28;;;;;;;2.95;1.30;;;20.70;50.50;;;24.57;33.81;101688.34;5053204;28;20049;-8
2021/10/28 05:59:54;;;;;;;3.63;1.50;;;20.70;50.60;;;24.56;33.86;101684.81;5053364;28;20053;-8
2021/10/28 06:02:20;;;;;;;2.63;1.35;;;20.80;50.60;;;24.58;34.12;101685.56;5051742;28;20480;-8
2021/10/28 06:04:45;;;;;;;4.65;1.60;;;20.80;50.60;;;24.57;34.00;101678.50;5052932;28;20045;-8
2021/10/28 06:07:11;;;;;;;5.47;1.80;;;20.90;50.70;;;24.59;33.96;101684.63;5033660;28;20053;-7
2021/10/28 06:09:37;;;;;;;4.03;1.40;;;20.80;50.70;;;24.60;34.09;101689.00;5052948;28;20102;-8
2021/10/28 06:12:04;;;;;;;4.93;1.48;;;20.80;50.80;;;24.62;34.03;101699.59;5053093;28;20053;-8
2021/10/28 06:14:32;;;;;;;3.30;1.83;;;20.80;51.30;;;24.63;34.11;101695.13;5052866;28;20140;-8
2021/10/28 06:17:06;;;;;;;3.70;1.70;;;20.90;50.70;;;24.62;34.13;101693.38;5053030;28;20051;-8
2021/10/28 06:19:32;;;;;;;5.22;1.67;;;20.90;50.70;;;24.62;34.14;101685.38;5053180;28;20049;-8
2021/10/28 06:21:58;;;;;;;6.32;1.60;;;20.90;50.70;;;24.63;33.99;101689.78;5053157;28;20048;-8
2021/10/28 06:24:24;;;;;;;3.75;1.40;;;20.80;50.70;;;24.64;33.97;101699.50;5052712;28;20060;-8
2021/10/28 06:26:50;;;;;;;3.15;1.67;;;20.90;50.70;;;24.63;34.13;101695.97;5052713;28;20049;-8
2021/10/28 06:29:15;;;;;;;4.95;1.42;;;20.80;50.90;;;24.63;34.11;101704.00;5052736;28;20143;-8
2021/10/28 06:31:43;;;;;;;4.60;1.60;;;20.70;51.00;;;24.66;33.99;101694.91;5052943;28;20044;-8
2021/10/28 06:34:17;;;;;;;4.93;1.80;;;20.80;50.80;;;24.66;34.16;101693.09;5052672;28;20386;-8
2021/10/28 06:36:43;;;;;;;2.95;1.70;;;20.80;50.80;;;24.67;34.01;101688.59;5052999;28;20059;-8
2021/10/28 06:39:10;;;;;;;3.03;1.40;;;20.80;50.90;;;24.71;34.07;101682.13;5052324;28;20049;-7
2021/10/28 06:41:36;;;;;;;2.40;1.60;;;20.80;50.80;;;24.71;33.92;101676.75;5052747;28;20099;-8
2021/10/28 06:44:05;;;;;;;1.70;1.33;;;20.80;50.70;;;24.76;33.94;101685.34;5052287;28;20056;-8
2021/10/28 06:46:31;;;;;;;3.03;1.40;;;20.80;50.70;;;24.75;33.85;101683.63;5052460;28;20405;-8
2021/10/28 06:48:59;;;;;;;3.22;1.30;;;20.90;50.60;;;24.80;33.81;101680.66;5052305;28;20049;-8
2021/10/28 06:51:25;;;;;;;3.00;1.70;;;20.90;50.50;;;24.83;33.95;101672.44;5052471;28;20061;-8
2021/10/28 06:53:59;;;;;;;9.48;1.85;;;20.90;50.40;;;24.85;33.75;101675.84;5052269;28;20132;-8
2021/10/28 06:56:41;;;;;;;4.97;1.80;;;20.90;50.40;;;24.90;33.86;101687.09;5052420;28;20060;-8
2021/10/28 07:04:35;;;;;;;2.60;1.40;;;21.00;50.20;;;24.95;33.70;101682.31;5040985;28;20045;-8
2021/10/28 07:07:01;;;;;;;5.53;2.25;;;21.00;50.10;;;24.96;33.73;101682.22;5056052;28;20052;-8
2021/10/28 07:09:36;;;;;;;2.95;1.80;;;21.00;50.10;;;25.00;33.67;101682.84;5055751;28;20059;-8
2021/10/28 07:12:11;;;;;;;4.63;2.00;;;21.00;50.50;;;25.02;33.74;101685.44;5056271;28;20044;-8
2021/10/28 07:14:37;;;;;;;7.68;1.63;;;21.00;50.00;;;25.02;33.42;101680.94;5056073;28;20044;-8
2021/10/28 07:19:58;;;;;;;;;;;21.10;49.90;;;25.20;33.46;101689.56;5055845;28;20049;-8
2021/10/28 07:22:44;;;;;;;3.70;1.50;;;21.10;49.90;;;25.15;33.42;101691.69;5055606;28;19921;-8
2021/10/28 07:28:06;;;;;;;4.50;1.63;;;21.20;49.80;;;25.13;33.45;101682.91;5055563;28;20045;-8
2021/10/28 07:33:40;;;;;;;6.38;1.85;;;21.20;49.70;;;25.18;33.38;101683.47;5055675;28;20388;-8
2021/10/28 07:39:01;;;;;;;4.20;1.50;;;21.20;49.60;;;25.20;33.32;101686.03;5055336;28;20136;-8
2021/10/28 07:57:58;;;;;;;5.80;2.28;;;21.40;49.20;;;25.19;33.12;101685.16;5055030;28;20498;-8
2021/10/28 08:13:30;;;;;;;5.47;1.95;;;21.20;49.50;;;25.17;33.13;101689.75;5055163;28;20041;-8
2021/10/28 08:21:40;;;;;;;4.60;2.25;;;21.20;49.80;;;25.11;33.25;101674.97;5054930;28;20053;-8
2021/10/28 08:24:15;;;;;;;2.85;1.90;;;21.20;49.70;;;25.13;33.22;101677.56;5054560;28;20045;-7
2021/10/28 08:29:35;;;;;;;5.22;2.35;;;21.20;49.70;;;25.11;33.20;101680.34;5054490;28;20060;-9
2021/10/28 08:32:04;;;;;;;4.32;2.08;;;21.20;49.70;;;25.07;33.18;101670.78;5054454;28;20056;-8
2021/10/28 08:34:39;;;;;;;9.20;2.55;;;21.20;49.60;;;25.05;33.25;101672.72;5054660;28;20052;-8
2021/10/28 08:37:14;;;;;;;4.47;1.80;;;21.20;49.70;;;25.06;33.21;101679.78;5054419;28;20041;-8
2021/10/28 08:39:48;;;;;;;3.65;1.63;;;21.10;49.80;;;25.05;33.36;101675.38;5053968;28;20049;-8
2021/10/28 08:42:16;;;;;;;5.22;2.25;;;21.10;49.80;;;25.04;33.19;101676.34;5054351;28;20127;-8
2021/10/28 08:44:53;;;;;;;5.70;1.80;;;21.00;49.90;;;24.98;33.33;101676.75;5054168;28;20140;-9
2021/10/28 08:47:22;;;;;;;4.28;2.13;;;21.00;49.90;;;25.04;33.12;101672.81;5054418;28;20053;-9
2021/10/28 08:49:57;;;;;;;6.97;2.30;;;21.00;50.00;;;24.99;33.31;101656.19;5054109;28;20041;-8
2021/10/28 08:55:15;;;;;;;5.30;1.75;;;21.10;49.70;;;24.98;33.41;101663.38;5054654;28;20390;-8
2021/10/28 09:19:23;;;;;;;4.18;1.73;;;21.00;49.90;;;24.98;33.47;101655.34;5053951;28;20052;-7
2021/10/28 09:32:04;;;;;;;5.60;2.17;;;20.90;50.20;;;24.90;33.47;101638.94;5053509;28;20485;-7
2021/10/28 09:34:39;;;;;;;5.85;2.05;;;20.90;50.20;;;24.90;33.58;101636.28;5053483;28;20459;-8
2021/10/28 09:48:46;;;;;;;8.15;2.05;;;21.00;50.00;;;24.91;33.40;101633.50;5052288;28;20114;-9
2021/10/28 09:51:16;;;;;;;5.40;2.03;;;21.00;50.00;;;24.92;33.36;101624.50;5050588;28;20052;-9
2021/10/28 09:59:35;;;;;;;4.18;2.05;;;21.00;50.00;;;24.91;33.39;101628.16;5053295;28;20392;-7
2021/10/28 10:02:14;;;;;;;9.48;2.40;;;21.00;50.00;;;24.92;33.41;101620.97;5053099;28;20045;-6
2021/10/28 10:04:42;;;;;;;5.68;2.55;;;21.00;50.10;;;24.90;33.45;101612.19;5037139;28;20171;-13
2021/10/28 10:07:11;;;;;;;5.05;2.38;;;21.00;50.50;;;24.91;33.35;101616.59;5053139;28;20049;-6
2021/10/28 10:09:38;;;;;;;4.35;2.17;;;21.00;49.90;;;24.91;33.34;101613.94;5035041;28;20099;-7
2021/10/28 10:12:06;;;;;;;6.72;2.30;;;21.00;50.00;;;24.92;33.37;101616.47;5034288;28;20067;-9
2021/10/28 10:14:37;;;;;;;5.47;2.33;;;21.00;49.90;;;24.90;33.27;101613.06;5052830;28;20501;-7
2021/10/28 10:17:06;;;;;;;8.90;3.20;;;21.00;50.00;;;24.95;33.38;101615.44;5053054;28;20427;-7
2021/10/28 10:19:37;;;;;;;5.60;2.67;;;21.00;50.00;;;24.93;33.26;101612.84;5052774;28;20045;-7
2021/10/28 10:22:18;;;;;;;6.93;2.40;;;21.00;49.90;;;24.92;33.24;101603.09;5053088;28;20053;-7
2021/10/28 10:30:28;;;;;;;9.00;3.03;;;21.00;49.80;;;24.93;33.25;101609.31;5052629;28;20877;-7
2021/10/28 11:31:14;;;;;;;9.38;2.95;;;21.20;49.40;;;24.94;33.28;101523.63;5052117;28;20049;-9
2021/10/28 12:50:57;;;;;;;9.27;3.03;;;21.10;49.80;;;24.99;33.18;101399.38;5054088;28;20041;-8
2021/10/28 12:53:43;;;;;;;6.63;2.03;;;21.10;49.70;;;25.05;33.09;101399.78;5054356;28;20064;-9
2021/10/28 12:56:45;;;;;;;9.25;3.10;;;21.10;49.70;;;25.00;33.39;101390.38;5054422;28;20049;-9
2021/10/28 13:38:01;;;;;;;9.05;2.88;;;21.10;49.60;;;25.03;33.22;101340.19;5053279;28;20049;-8
2021/10/28 13:51:36;;;;;;;8.88;2.85;;;21.10;49.50;;;25.05;33.32;101332.06;5053075;28;20052;-8
2021/10/28 13:57:11;;;;;;;6.10;2.22;;;21.10;49.70;;;25.06;33.13;101331.94;5053370;28;20059;-8
2021/10/28 14:23:50;;;;;;;7.47;2.75;;;21.00;49.60;;;25.01;33.27;101307.34;5052815;28;20161;-8
2021/10/28 15:01:44;;;;;;;5.57;2.47;;;21.00;49.60;;;25.02;33.10;101284.97;5052389;28;20045;-8
2021/10/28 15:28:41;;;;;;;7.88;2.40;;;20.90;49.80;;;24.96;33.14;101251.50;5055541;28;20075;-8
2021/10/28 15:36:28;;;;;;;4.93;2.30;;;20.90;49.80;;;24.96;33.01;101253.31;5056010;28;20136;-9
2021/10/28 15:39:12;;;;;;;6.50;2.33;;;20.90;49.90;;;24.94;33.19;101241.84;5055345;28;20048;-8
2021/10/28 15:42:02;;;;;;;4.20;2.20;;;20.90;49.90;;;24.95;33.18;101247.09;5055434;28;20124;-9
2021/10/28 15:47:53;;;;;;;6.13;2.10;;;20.90;50.00;;;24.92;33.28;101244.66;5055160;28;20033;-8
2021/10/28 15:50:46;;;;;;;4.05;2.35;;;20.80;50.00;;;24.91;33.17;101234.09;5054912;28;20090;-9
2021/10/28 15:53:15;;;;;;;4.97;2.20;;;20.80;50.00;;;24.91;33.15;101229.56;5055054;28;20033;-8
2021/10/28 15:56:21;;;;;;;7.35;2.53;;;20.80;50.00;;;24.92;33.13;101230.41;5055181;28;20044;-8
2021/10/28 16:23:22;;;;;;;6.07;2.13;;;20.80;50.00;;;24.89;33.26;101218.16;5054600;28;20048;-8
2021/10/28 16:25:48;;;;;;;4.18;1.90;;;20.80;50.00;;;24.88;33.20;101212.91;5054845;28;20473;-8
2021/10/28 16:28:16;;;;;;;3.38;2.17;;;20.80;50.00;;;24.90;33.26;101219.00;5054516;28;20055;-8
2021/10/28 16:30:45;;;;;;;6.47;2.22;;;20.80;50.10;;;24.88;33.13;101211.06;5054870;28;20049;-8
2021/10/28 16:33:12;;;;;;;4.50;2.20;;;20.80;50.10;;;24.87;33.26;101212.03;5055088;28;20048;-8
2021/10/28 16:35:38;;;;;;;9.05;2.10;;;20.80;50.10;;;24.87;33.22;101212.03;5054287;28;20051;-8
2021/10/28 16:38:05;;;;;;;5.47;2.60;;;20.80;50.10;;;24.88;33.22;101215.56;5054397;28;20048;-8
2021/10/28 16:40:31;;;;;;;4.20;1.83;;;20.80;50.10;;;24.89;33.19;101218.16;5054369;28;20052;-8
2021/10/28 16:42:56;;;;;;;5.28;2.00;;;20.80;50.10;;;24.88;33.31;101215.56;5054647;28;20384;-8
2021/10/28 16:45:22;;;;;;;5.70;2.03;;;20.80;50.10;;;24.86;33.23;101209.47;5054141;28;20045;-8
2021/10/28 16:47:48;;;;;;;4.90;2.13;;;20.80;50.10;;;24.88;33.18;101204.88;5054100;28;20044;-7
2021/10/28 16:50:14;;;;;;;3.35;2.20;;;20.80;50.10;;;24.91;33.28;101210.00;5054235;28;20056;-8
2021/10/28 16:52:41;;;;;;;2.95;1.80;;;20.80;50.10;;;24.89;33.38;101206.56;5054207;28;20124;-7
2021/10/28 16:55:09;;;;;;;5.88;1.85;;;20.80;50.10;;;24.87;33.31;101200.47;5054174;28;20049;-7
2021/10/28 16:57:35;;;;;;;5.32;2.42;;;20.80;50.10;;;24.89;33.12;101202.09;5054052;28;20102;-7
2021/10/28 17:00:01;;;;;;;5.28;2.17;;;20.80;50.20;;;24.88;33.32;101205.72;5054174;28;20041;-8
2021/10/28 17:02:28;;;;;;;5.40;2.05;;;20.80;50.10;;;24.87;33.33;101195.13;5053985;28;20045;-8
2021/10/28 17:04:54;;;;;;;3.75;1.80;;;20.80;50.10;;;24.87;33.16;101193.31;5054035;28;20511;-8
2021/10/28 17:07:20;;;;;;;5.25;2.58;;;20.80;50.20;;;24.89;33.35;101203.88;5053944;28;20049;-8
2021/10/28 17:09:45;;;;;;;4.63;2.42;;;20.80;50.10;;;24.91;33.15;101208.19;5053871;28;20118;-7
2021/10/28 17:12:11;;;;;;;5.70;2.35;;;20.80;50.10;;;24.92;33.20;101217.91;5053930;28;20048;-8
2021/10/28 17:14:38;;;;;;;5.68;1.92;;;20.80;50.10;;;24.89;33.13;101202.09;5053981;28;20052;-8
2021/10/28 17:17:03;;;;;;;4.30;2.00;;;20.80;50.10;;;24.91;33.14;101199.31;5054009;28;20172;-7
2021/10/28 17:19:29;;;;;;;7.93;2.38;;;20.80;50.00;;;24.90;33.20;101203.78;5053696;28;20053;-7
2021/10/28 17:21:55;;;;;;;3.45;1.90;;;20.80;50.10;;;24.92;33.28;101201.00;5053804;28;20045;-7
2021/10/28 17:24:25;;;;;;;4.18;2.10;;;20.80;50.10;;;24.88;33.17;101200.38;5053679;28;20041;-8
2021/10/28 17:26:51;;;;;;;5.45;1.90;;;20.80;50.20;;;24.88;33.20;101208.41;5053612;28;20045;-7
2021/10/28 17:29:17;;;;;;;4.53;1.90;;;20.80;50.10;;;24.88;33.10;101200.38;5053462;28;20049;-8
2021/10/28 17:31:42;;;;;;;3.33;1.80;;;20.80;50.70;;;24.91;33.37;101205.50;5052858;28;20396;-8
2021/10/28 17:34:08;;;;;;;3.92;1.77;;;20.80;50.10;;;24.90;33.11;101209.13;5053639;28;20056;-8
2021/10/28 17:36:34;;;;;;;3.35;2.15;;;20.80;50.20;;;24.89;33.30;101202.09;5053468;28;20056;-7
2021/10/28 17:39:00;;;;;;;3.95;1.92;;;20.80;50.10;;;24.90;33.28;101197.59;5053751;28;20051;-7
2021/10/28 17:41:26;;;;;;;3.28;1.70;;;20.80;50.20;;;24.89;33.15;101201.22;5053337;28;20382;-7
2021/10/28 17:43:55;;;;;;;6.03;2.33;;;20.80;50.20;;;24.89;33.16;101198.53;5053673;28;20131;-8
2021/10/28 17:46:24;;;;;;;5.50;2.70;;;20.70;50.10;;;24.89;33.15;101199.41;5052501;28;20048;-7
2021/10/28 17:48:51;;;;;;;4.97;2.35;;;20.80;50.20;;;24.87;33.16;101192.47;5053226;28;20052;-8
2021/10/28 17:51:17;;;;;;;3.58;1.75;;;20.80;50.20;;;24.89;33.17;101195.88;5053140;28;20049;-8
2021/10/28 17:53:44;;;;;;;2.50;1.98;;;20.80;50.30;;;24.87;33.31;101190.63;5053347;28;20524;-8
2021/10/28 17:56:15;;;;;;;3.70;1.65;;;20.80;50.30;;;24.87;33.36;101185.28;5053486;28;20179;-8
2021/10/28 17:58:41;;;;;;;6.03;1.90;;;20.80;50.80;;;24.90;33.41;101192.25;5053233;28;20045;-7
2021/10/28 18:01:08;;;;;;;4.13;1.70;;;20.80;50.20;;;24.92;33.17;101196.50;5052934;28;20098;-7
2021/10/28 18:03:34;;;;;;;3.63;1.63;;;20.80;50.80;;;24.90;33.27;101193.09;5053099;28;20045;-7
2021/10/28 18:06:01;;;;;;;4.90;2.05;;;20.80;50.20;;;24.88;33.09;101188.84;5052859;28;20052;-8
2021/10/28 18:08:27;;;;;;;2.97;1.85;;;20.80;50.10;;;24.88;33.07;101189.69;5052877;28;20045;-8
2021/10/28 18:10:52;;;;;;;4.00;1.95;;;20.80;50.10;;;24.86;33.17;101183.59;5052934;28;20374;-7
2021/10/28 18:13:19;;;;;;;4.32;1.65;;;20.80;50.10;;;24.87;33.12;101177.25;5053445;28;20114;-7
2021/10/28 18:15:46;;;;;;;4.88;1.92;;;20.80;50.20;;;24.89;33.20;101178.03;5053023;28;20481;-7
2021/10/28 18:18:12;;;;;;;4.25;2.05;;;20.80;50.20;;;24.88;33.25;101181.66;5052794;28;20409;-8
2021/10/28 18:20:39;;;;;;;3.53;1.85;;;20.70;50.20;;;24.85;33.22;101183.69;5034406;28;20501;-8
2021/10/28 18:23:06;;;;;;;5.40;2.00;;;20.70;50.80;;;24.83;33.36;101186.50;5052881;28;20052;-8
2021/10/28 18:25:33;;;;;;;4.47;2.00;;;20.70;50.20;;;24.85;33.19;101183.69;5052781;28;20119;-8
2021/10/28 18:28:00;;;;;;;2.88;1.70;;;20.70;50.20;;;24.82;33.26;101184.75;5053197;28;20534;-7
2021/10/28 18:30:34;;;;;;;3.90;1.65;;;20.70;50.30;;;24.83;33.33;101177.63;5053033;28;20045;-7
2021/10/28 18:33:00;;;;;;;2.50;1.52;;;20.70;50.30;;;24.78;33.11;101176.13;5053103;28;20059;-9